Osage Beach, Missouri
Current Conditions -  °F | °C
As of 10:15 AM on Wednesday 28 Jan 2015 (Local Time) from KAIZ Reporting Station
Clear Clear  
Wind Chill: 40°   Ceiling: Unl
Heat Index: 46°   Visibility: 10mi
Dew Point: 32°   Wind: 15mph
Humidity: 57%   Direction: 160°SSE
Pressure: 30.08"   Gusts: 23mph
Location:  38.15°N, 92.62°W
Report Text: KAIZ 281615Z AUTO 16013G20KT 10SM CLR 08/00 A3008 RMK AO1
Loading
Personal Weather Stations






























Interactive Weather Map New forecast layout! Learn more

10-Day Weather Forecast

Advertisements
Track Severe Weather on mobile